Time;durP1;ratioP1;P1;durP2;ratioP2;P2;SDS_P1;SDS_P2;PMS_P1;PMS_P2;Temp;Humidity;BMP_temperature;BMP_pressure;BME280_temperature;BME280_humidity;BME280_pressure;Samples;Min_cycle;Max_cycle;Signal;HPM_P1;HPM_P2
2022/10/31 00:02:27;;;;;;;21.85;7.68;;;;;;;;;;6354249;22;20167;-92
2022/10/31 00:05:32;;;;;;;43.03;17.00;;;;;;;;;;6354345;22;20165;-91
2022/10/31 00:08:38;;;;;;;27.00;11.30;;;;;;;;;;6353141;22;20168;-90
2022/10/31 00:11:45;;;;;;;122.20;10.20;;;;;;;;;;6354022;22;20168;-93
2022/10/31 00:14:50;;;;;;;35.85;7.65;;;;;;;;;;6353857;22;20169;-92
2022/10/31 00:17:55;;;;;;;52.10;8.48;;;;;;;;;;6354568;22;20164;-90
2022/10/31 00:21:02;;;;;;;127.55;10.85;;;;;;;;;;6354401;22;20188;-91
2022/10/31 00:24:07;;;;;;;64.07;10.93;;;;;;;;;;6353903;22;20207;-93
2022/10/31 00:27:14;;;;;;;52.13;9.73;;;;;;;;;;6353687;22;20772;-91
2022/10/31 00:30:19;;;;;;;243.93;13.63;;;;;;;;;;6354646;22;20162;-93
2022/10/31 00:33:26;;;;;;;205.20;12.57;;;;;;;;;;6353186;22;20702;-90
2022/10/31 00:36:31;;;;;;;181.65;12.18;;;;;;;;;;6354769;22;20153;-91
2022/10/31 00:39:36;;;;;;;41.40;11.40;;;;;;;;;;6353888;22;20638;-91
2022/10/31 00:42:42;;;;;;;225.30;13.55;;;;;;;;;;6350599;22;20164;-91
2022/10/31 00:45:47;;;;;;;69.13;9.60;;;;;;;;;;6352307;22;20164;-90
2022/10/31 00:48:53;;;;;;;76.10;10.75;;;;;;;;;;6350471;22;20206;-89
2022/10/31 00:51:58;;;;;;;81.13;9.65;;;;;;;;;;6352617;22;20193;-90
2022/10/31 00:55:03;;;;;;;62.95;7.90;;;;;;;;;;6353158;22;20501;-92
2022/10/31 00:58:10;;;;;;;68.25;7.53;;;;;;;;;;6352895;22;20172;-91
2022/10/31 01:01:16;;;;;;;77.45;9.07;;;;;;;;;;6353406;22;20191;-90
2022/10/31 01:04:20;;;;;;;77.22;8.65;;;;;;;;;;6350632;22;20164;-90
2022/10/31 01:07:27;;;;;;;69.82;8.32;;;;;;;;;;6352113;22;20165;-90
2022/10/31 01:10:32;;;;;;;44.10;7.80;;;;;;;;;;6352106;22;20186;-91
2022/10/31 01:13:39;;;;;;;38.92;7.15;;;;;;;;;;6352520;22;20156;-90
2022/10/31 01:16:45;;;;;;;86.90;7.90;;;;;;;;;;6352119;22;20243;-91
2022/10/31 01:19:50;;;;;;;80.18;7.13;;;;;;;;;;6352005;22;20192;-92
2022/10/31 01:22:57;;;;;;;54.05;7.78;;;;;;;;;;6349934;22;20165;-91
2022/10/31 01:26:03;;;;;;;62.00;6.93;;;;;;;;;;6352282;22;20169;-91
2022/10/31 01:29:10;;;;;;;48.72;6.40;;;;;;;;;;6352349;22;20168;-91
2022/10/31 01:32:15;;;;;;;53.65;6.75;;;;;;;;;;6350544;22;20172;-92
2022/10/31 01:35:20;;;;;;;52.55;6.97;;;;;;;;;;6353259;22;20248;-92
2022/10/31 01:38:25;;;;;;;93.95;7.95;;;;;;;;;;6351741;22;20164;-89
2022/10/31 01:41:32;;;;;;;85.55;7.88;;;;;;;;;;6353192;22;20259;-90
2022/10/31 01:45:13;;;;;;;75.95;8.18;;;;;;;;;;6351904;22;20164;-91
2022/10/31 01:48:21;;;;;;;110.13;8.95;;;;;;;;;;6354079;22;20165;-90
2022/10/31 01:51:29;;;;;;;121.97;8.75;;;;;;;;;;6351685;22;20164;-91
2022/10/31 01:54:37;;;;;;;119.15;8.43;;;;;;;;;;6352606;22;20236;-90
2022/10/31 01:57:44;;;;;;;65.45;7.63;;;;;;;;;;6352902;22;20233;-93
2022/10/31 02:00:52;;;;;;;49.10;7.68;;;;;;;;;;6352231;22;20191;-91
2022/10/31 02:03:59;;;;;;;83.45;7.55;;;;;;;;;;6352896;22;20165;-91
2022/10/31 02:07:06;;;;;;;98.15;8.15;;;;;;;;;;6352537;22;20168;-90
2022/10/31 02:10:12;;;;;;;113.57;8.60;;;;;;;;;;6353266;22;20160;-91
2022/10/31 02:13:17;;;;;;;74.70;7.32;;;;;;;;;;6351196;22;20160;-91
2022/10/31 02:16:25;;;;;;;35.08;6.50;;;;;;;;;;6352345;22;20207;-92
2022/10/31 02:19:36;;;;;;;107.65;9.23;;;;;;;;;;6352120;22;20169;-90
2022/10/31 02:22:49;;;;;;;48.30;7.70;;;;;;;;;;6351726;22;20483;-89
2022/10/31 02:26:10;;;;;;;68.40;7.85;;;;;;;;;;6352783;22;20164;-92
2022/10/31 02:29:26;;;;;;;111.82;9.00;;;;;;;;;;6353839;22;20206;-91
2022/10/31 02:32:36;;;;;;;62.05;8.20;;;;;;;;;;6352908;22;20188;-92
2022/10/31 02:35:44;;;;;;;111.75;7.93;;;;;;;;;;6353335;22;20189;-91
2022/10/31 02:38:53;;;;;;;28.02;7.15;;;;;;;;;;6353293;22;20172;-90
2022/10/31 02:42:14;;;;;;;47.25;7.45;;;;;;;;;;6352676;22;20215;-91
2022/10/31 02:45:23;;;;;;;52.33;6.80;;;;;;;;;;6352268;22;20230;-91
2022/10/31 02:48:31;;;;;;;47.67;6.93;;;;;;;;;;6352149;22;20164;-90
2022/10/31 02:51:36;;;;;;;49.47;7.55;;;;;;;;;;6352690;22;20191;-91
2022/10/31 02:54:42;;;;;;;27.35;7.38;;;;;;;;;;6352075;22;20346;-92
2022/10/31 02:57:47;;;;;;;35.55;8.10;;;;;;;;;;6350660;22;20176;-91
2022/10/31 03:00:58;;;;;;;69.22;8.75;;;;;;;;;;6351067;22;20253;-93
2022/10/31 03:04:37;;;;;;;42.20;7.75;;;;;;;;;;6349638;22;20173;-91
2022/10/31 03:07:49;;;;;;;34.25;7.53;;;;;;;;;;6209633;23;20202;-91
2022/10/31 03:10:56;;;;;;;25.67;6.43;;;;;;;;;;6209358;23;20170;-91
2022/10/31 03:14:03;;;;;;;70.45;7.68;;;;;;;;;;6350132;22;20230;-92
2022/10/31 03:17:11;;;;;;;48.10;7.45;;;;;;;;;;6350918;22;20163;-91
2022/10/31 03:20:19;;;;;;;28.08;7.55;;;;;;;;;;6352488;22;20238;-92
2022/10/31 03:23:27;;;;;;;69.18;7.97;;;;;;;;;;6351853;22;20152;-92
2022/10/31 03:26:32;;;;;;;27.08;7.22;;;;;;;;;;6350781;22;20240;-91
2022/10/31 03:29:38;;;;;;;30.55;7.43;;;;;;;;;;6349708;22;20164;-91
2022/10/31 03:32:45;;;;;;;31.95;7.35;;;;;;;;;;6348899;22;20192;-89
2022/10/31 03:35:53;;;;;;;63.10;7.03;;;;;;;;;;6351093;22;20208;-90
2022/10/31 03:39:00;;;;;;;16.20;6.28;;;;;;;;;;6350997;22;20220;-92
2022/10/31 03:42:07;;;;;;;38.55;6.72;;;;;;;;;;6350485;22;20196;-91
2022/10/31 03:45:16;;;;;;;39.40;7.28;;;;;;;;;;6350442;22;20180;-92
2022/10/31 03:48:22;;;;;;;30.33;6.03;;;;;;;;;;6371984;22;20163;-91
2022/10/31 03:51:35;;;;;;;27.35;5.70;;;;;;;;;;6355330;22;20286;-92
2022/10/31 03:54:44;;;;;;;15.65;5.72;;;;;;;;;;6353598;22;20164;-92
2022/10/31 03:57:53;;;;;;;37.63;6.35;;;;;;;;;;6353084;22;20596;-90
2022/10/31 04:00:58;;;;;;;42.55;6.50;;;;;;;;;;6352978;22;20190;-91
2022/10/31 04:04:04;;;;;;;135.85;8.00;;;;;;;;;;6354941;22;20215;-90
2022/10/31 04:07:10;;;;;;;33.45;6.13;;;;;;;;;;6355006;22;20215;-90
2022/10/31 04:10:17;;;;;;;48.47;7.22;;;;;;;;;;6354528;22;20168;-94
2022/10/31 04:13:24;;;;;;;144.73;8.82;;;;;;;;;;6353940;22;20164;-91
2022/10/31 04:16:38;;;;;;;32.00;6.35;;;;;;;;;;6353108;22;20159;-91
2022/10/31 04:19:43;;;;;;;37.67;6.50;;;;;;;;;;6354143;22;20164;-90
2022/10/31 04:22:48;;;;;;;26.20;6.53;;;;;;;;;;6354372;22;20168;-92
2022/10/31 04:25:55;;;;;;;19.73;6.10;;;;;;;;;;6354981;22;20703;-92
2022/10/31 04:29:00;;;;;;;29.33;6.80;;;;;;;;;;6353965;22;20286;-91
2022/10/31 04:32:07;;;;;;;64.35;7.88;;;;;;;;;;6351865;22;20283;-92
2022/10/31 04:35:12;;;;;;;68.05;7.55;;;;;;;;;;6353327;22;20227;-91
2022/10/31 04:38:17;;;;;;;87.22;7.78;;;;;;;;;;6353715;22;20165;-91
2022/10/31 04:41:26;;;;;;;46.40;7.00;;;;;;;;;;6352816;22;20187;-89
2022/10/31 04:48:56;;;;;;;39.15;6.05;;;;;;;;;;6355260;22;20188;-91
2022/10/31 04:52:02;;;;;;;39.10;6.40;;;;;;;;;;6353178;22;20237;-90
2022/10/31 04:55:08;;;;;;;58.13;7.00;;;;;;;;;;6353127;22;20615;-90
2022/10/31 04:58:39;;;;;;;72.65;7.28;;;;;;;;;;6354156;22;20211;-89
2022/10/31 05:01:47;;;;;;;67.78;6.35;;;;;;;;;;6353265;22;20280;-93
2022/10/31 05:04:52;;;;;;;53.47;6.97;;;;;;;;;;6352093;22;20165;-92
2022/10/31 05:07:58;;;;;;;41.83;7.00;;;;;;;;;;6354416;22;20149;-89
2022/10/31 05:11:05;;;;;;;79.80;7.65;;;;;;;;;;6352406;22;20164;-91
2022/10/31 05:14:12;;;;;;;103.47;6.68;;;;;;;;;;6353122;22;20156;-89
2022/10/31 05:17:36;;;;;;;61.63;6.90;;;;;;;;;;6354806;22;20164;-90
2022/10/31 05:21:07;;;;;;;73.38;6.40;;;;;;;;;;6354278;22;20219;-90
2022/10/31 05:24:21;;;;;;;29.95;5.78;;;;;;;;;;6352144;22;20234;-91
2022/10/31 05:27:27;;;;;;;108.50;7.28;;;;;;;;;;6354151;22;20175;-90
2022/10/31 05:30:34;;;;;;;73.65;6.85;;;;;;;;;;6355038;22;20164;-90
2022/10/31 05:33:40;;;;;;;56.83;5.82;;;;;;;;;;6354193;22;20257;-89
2022/10/31 05:37:04;;;;;;;35.05;6.43;;;;;;;;;;6354064;22;20497;-90
2022/10/31 05:40:10;;;;;;;78.63;6.18;;;;;;;;;;6353415;22;20183;-90
2022/10/31 05:43:16;;;;;;;50.15;6.50;;;;;;;;;;6352853;22;20168;-90
2022/10/31 05:46:27;;;;;;;33.28;6.22;;;;;;;;;;6357192;22;20203;-90
2022/10/31 05:49:52;;;;;;;25.15;5.63;;;;;;;;;;6356240;22;20165;-91
2022/10/31 05:53:16;;;;;;;31.30;5.55;;;;;;;;;;6353138;22;20152;-91
2022/10/31 05:56:22;;;;;;;24.23;5.85;;;;;;;;;;6353438;22;20171;-90
2022/10/31 05:59:28;;;;;;;45.05;6.50;;;;;;;;;;6352679;22;20219;-90
2022/10/31 06:02:35;;;;;;;47.88;5.75;;;;;;;;;;6353064;22;20192;-92
2022/10/31 06:06:01;;;;;;;80.03;6.72;;;;;;;;;;6352495;22;20164;-90
2022/10/31 06:09:19;;;;;;;69.60;7.50;;;;;;;;;;6353010;22;20165;-89
2022/10/31 06:12:26;;;;;;;23.13;5.93;;;;;;;;;;6354554;22;20172;-89
2022/10/31 06:16:06;;;;;;;101.65;6.80;;;;;;;;;;6291671;22;20262;-90
2022/10/31 06:19:16;;;;;;;45.10;6.38;;;;;;;;;;6352949;22;20160;-90
2022/10/31 06:22:22;;;;;;;53.25;7.10;;;;;;;;;;6354679;22;20223;-89
2022/10/31 06:25:27;;;;;;;33.17;5.97;;;;;;;;;;6353016;22;20168;-90
2022/10/31 06:28:33;;;;;;;33.80;5.75;;;;;;;;;;6353924;22;20168;-92
2022/10/31 06:31:52;;;;;;;51.83;5.72;;;;;;;;;;6353292;22;20173;-91
2022/10/31 06:34:59;;;;;;;29.08;5.30;;;;;;;;;;6354764;22;20149;-91
2022/10/31 06:38:04;;;;;;;46.60;5.60;;;;;;;;;;6353991;22;20164;-91
2022/10/31 06:41:16;;;;;;;64.20;5.93;;;;;;;;;;6352956;22;20188;-92
2022/10/31 06:44:25;;;;;;;21.20;5.07;;;;;;;;;;6356464;22;20163;-90
2022/10/31 06:47:37;;;;;;;21.85;5.72;;;;;;;;;;6354219;22;20234;-90
2022/10/31 06:50:47;;;;;;;21.27;5.47;;;;;;;;;;6355142;22;20214;-93
2022/10/31 06:53:53;;;;;;;24.70;5.50;;;;;;;;;;6354051;22;20169;-91
2022/10/31 06:56:58;;;;;;;21.10;5.50;;;;;;;;;;6356576;22;20183;-93
2022/10/31 07:00:03;;;;;;;59.67;6.05;;;;;;;;;;6352936;22;20274;-91
2022/10/31 07:03:21;;;;;;;17.67;4.97;;;;;;;;;;6352673;22;20156;-89
2022/10/31 07:06:28;;;;;;;15.48;6.43;;;;;;;;;;6357001;22;20203;-90
2022/10/31 07:09:33;;;;;;;28.00;5.93;;;;;;;;;;6352870;22;20282;-90
2022/10/31 07:12:42;;;;;;;54.40;5.68;;;;;;;;;;6353463;22;20152;-88
2022/10/31 07:15:51;;;;;;;35.40;5.93;;;;;;;;;;6351426;22;20591;-91
2022/10/31 07:19:00;;;;;;;20.33;5.05;;;;;;;;;;6351043;22;20165;-89
2022/10/31 07:22:08;;;;;;;19.05;5.43;;;;;;;;;;6353730;22;20210;-92
2022/10/31 07:25:15;;;;;;;11.95;5.40;;;;;;;;;;6353837;22;20160;-90
2022/10/31 07:28:42;;;;;;;14.38;5.47;;;;;;;;;;6352287;22;20160;-90
2022/10/31 07:31:48;;;;;;;19.45;4.63;;;;;;;;;;6349261;22;20163;-89
2022/10/31 07:34:59;;;;;;;27.77;4.85;;;;;;;;;;6352532;22;20148;-91
2022/10/31 07:38:19;;;;;;;17.45;5.43;;;;;;;;;;6352628;22;20606;-90
2022/10/31 07:41:25;;;;;;;21.95;5.47;;;;;;;;;;6355029;22;20187;-89
2022/10/31 07:44:31;;;;;;;30.90;7.32;;;;;;;;;;6353391;22;20165;-90
2022/10/31 07:47:56;;;;;;;17.80;5.38;;;;;;;;;;6350873;22;20157;-91
2022/10/31 07:51:20;;;;;;;19.30;5.43;;;;;;;;;;6356703;22;20210;-89
2022/10/31 07:54:49;;;;;;;17.52;4.90;;;;;;;;;;6354375;22;20167;-89
2022/10/31 07:58:02;;;;;;;43.10;6.00;;;;;;;;;;6352754;22;20160;-90
2022/10/31 08:01:07;;;;;;;21.20;5.10;;;;;;;;;;6352473;22;20168;-92
